Latest Weather Observations for Coonabarabran Airport

IDN60801

Issued at 6:32 am EDT Friday 9 December 2016 (issued every 30 minutes, with the page automatically refreshed every 10 minutes)

About weather observations | Map of weather stations | Latest weather observations for NSW | Other Formats
Station Details ID: 064017 Name: COONABARABRAN AIRPORT AWS Lat: -31.33 Lon: 149.27 Height: 645.0 m
Data from the previous 72 hours. | See also: Recent months at Coonabarabran Airport
Date/Time
EDT
Temp
°C
App
Temp
°C
Dew
Point
°C
Rel
Hum
%
Delta-T
°C
Wind Press
QNH
hPa
Press
MSL
hPa
Rain since
9am
mm
Dir  Spd
km/h
Gust
km/h
Spd
kts
Gust
kts
09/06:30am 11.6 7.8 7.5 76 2.1 SW 17 24 9 13 1012.7 1009.2 0.0
09/06:00am 11.6 6.9 7.9 78 1.9 SW 22 33 12 18 1012.0 1008.5 0.0
09/05:30am 12.0 5.5 8.1 77 2.0 SW 32 41 17 22 1011.4 1007.9 0.0
09/05:00am 12.4 6.6 8.1 75 2.2 SW 28 37 15 20 1010.7 1007.2 0.0
09/04:30am 12.7 7.7 8.0 73 2.4 SW 24 37 13 20 1010.4 1006.9 0.0
09/04:00am 13.4 7.2 7.8 69 2.9 SW 30 41 16 22 1010.2 1006.7 0.0
09/03:31am 14.1 7.4 7.4 64 3.4 SW 32 50 17 27 1009.7 1006.2 0.0
09/03:30am 14.1 7.8 7.4 64 3.4 SW 30 43 16 23 1009.7 1006.2 0.0
09/03:00am 14.8 7.9 7.1 60 3.9 SW 33 44 18 24 1009.6 1006.0 0.0
09/02:30am 15.1 8.8 7.6 61 3.9 SW 30 41 16 22 1009.7 1006.2 0.0
09/02:00am 15.3 9.1 7.8 61 3.9 SSW 30 44 16 24 1009.3 1005.7 0.0
09/01:30am 15.4 9.8 8.6 64 3.6 SW 28 39 15 21 1009.0 1005.5 0.0
09/01:00am 15.5 8.6 9.0 65 3.5 SW 35 54 19 29 1009.6 1006.0 0.0
09/12:51am 15.4 8.9 10.4 72 2.7 SW 35 54 19 29 1009.4 1005.8 0.0
09/12:30am 15.3 11.0 12.1 81 1.8 SW 26 43 14 23 1009.3 1005.7 0.0
09/12:00am 16.6 12.0 14.6 88 1.2 WSW 32 44 17 24 1009.0 1005.5 0.0
 
Date/Time
EDT
Temp
°C
App
Temp
°C
Dew
Point
°C
Rel
Hum
%
Delta-T
°C
Wind Press
QNH
hPa
Press
MSL
hPa
Rain since
9am
mm
Dir  Spd
km/h
Gust
km/h
Spd
kts
Gust
kts
08/11:30pm 19.0 17.1 15.1 78 2.4 W 19 28 10 15 1008.2 1004.6 0.0
08/11:00pm 19.3 16.5 14.3 73 3.0 W 22 32 12 17 1008.1 1004.5 0.0
08/10:30pm 21.2 17.7 13.4 61 4.6 WNW 24 37 13 20 1006.9 1003.4 0.0
08/10:00pm 20.7 17.0 13.9 65 4.1 SW 26 43 14 23 1006.2 1002.6 0.0
08/09:30pm 20.8 16.0 14.0 65 4.1 SW 32 52 17 28 1006.3 1002.7 0.0
08/09:10pm 20.9 16.1 14.1 65 4.1 SW 32 50 17 27 1006.0 1002.4 0.0
08/09:00pm 21.1 16.3 14.0 64 4.3 SW 32 44 17 24 1005.8 1002.3 0.0
08/08:30pm 22.7 15.1 13.5 56 5.5 WSW 46 74 25 40 1005.8 1002.3 0.0
08/08:21pm 23.3 14.9 13.5 54 5.9 WSW 50 74 27 40 1005.7 1002.2 0.0
08/08:20pm 23.4 15.0 13.6 54 5.9 WSW 50 74 27 40 1005.7 1002.2 0.0
08/08:00pm 26.9 18.0 11.8 39 8.9 W 50 91 27 49 1004.9 1001.3 0.0
08/07:58pm 28.5 20.4 10.7 33 10.4 W 44 83 24 45 1004.7 1001.1 0.0
08/07:57pm 29.4 21.3 10.0 30 11.2 W 43 83 23 45 1004.7 1001.1 0.0
08/07:43pm 30.8 23.3 7.9 24 12.9 WNW 37 56 20 30 1003.6 1000.0 0.0
08/07:30pm 30.7 25.3 9.6 27 12.2 WNW 28 37 15 20 1003.6 1000.0 0.0
08/07:01pm 31.6 25.5 9.8 26 12.7 WNW 32 52 17 28 1003.0 999.4 0.0
08/07:00pm 31.6 25.7 9.2 25 13.0 WNW 30 43 16 23 1003.1 999.5 0.0
08/06:30pm 32.6 25.8 9.4 24 13.5 W 35 56 19 30 1002.9 999.3 0.0
08/06:26pm 32.8 26.1 9.6 24 13.6 WNW 35 56 19 30 1002.8 999.2 0.0
08/06:00pm 33.1 27.0 9.8 24 13.7 W 32 46 17 25 1002.7 999.0 0.0
08/05:30pm 33.0 26.3 9.7 24 13.7 NW 35 50 19 27 1002.5 998.9 0.0
08/05:00pm 33.6 27.5 9.6 23 14.1 WNW 32 50 17 27 1002.7 999.0 0.0
08/04:34pm 34.1 28.1 10.0 23 14.3 WNW 32 50 17 27 1002.8 999.2 0.0
08/04:30pm 34.2 28.8 9.4 22 14.5 WNW 28 44 15 24 1002.8 999.2 0.0
08/04:18pm 34.5 29.3 10.4 23 14.4 WNW 28 46 15 25 1003.1 999.5 0.0
08/04:06pm 32.9 26.8 9.7 24 13.6 WNW 32 44 17 24 1003.2 999.6 0.0
08/04:00pm 34.1 28.4 11.3 25 13.8 NW 32 39 17 21 1003.2 999.6 0.0
08/03:33pm 32.9 27.3 10.3 25 13.4 NW 30 50 16 27 1003.5 999.9 0.0
08/03:30pm 33.7 28.1 10.3 24 13.9 NW 30 43 16 23 1003.7 1000.1 0.0
08/03:08pm 33.4 27.0 10.7 25 13.5 NW 35 52 19 28 1004.1 1000.6 0.0
08/03:01pm 32.5 26.4 10.5 26 13.0 NW 33 52 18 28 1004.3 1000.7 0.0
08/03:00pm 33.1 27.5 11.6 27 13.0 NW 32 52 17 28 1004.3 1000.7 0.0
08/02:55pm 34.0 28.1 12.4 27 13.2 WNW 35 54 19 29 1004.6 1001.0 0.0
08/02:30pm 33.1 27.5 11.6 27 13.0 NW 32 44 17 24 1005.0 1001.4 0.0
08/02:00pm 32.7 27.7 13.4 31 12.0 WNW 32 43 17 23 1005.5 1002.0 0.0
08/01:34pm 32.7 28.0 14.3 32 11.5 NW 32 54 17 29 1006.1 1002.5 0.0
08/01:30pm 32.0 27.8 14.6 34 10.9 NW 30 46 16 25 1006.2 1002.6 0.0
08/01:29pm 32.2 28.3 14.3 33 11.2 NW 28 46 15 25 1006.2 1002.6 0.0
08/01:00pm 29.2 28.2 18.0 51 7.3 NNW 20 33 11 18 1006.9 1003.4 0.0
08/12:30pm 29.4 28.0 16.9 47 8.1 NNW 20 32 11 17 1007.8 1004.2 0.0
08/12:00pm 29.2 27.1 17.1 48 7.8 NNW 24 35 13 19 1008.5 1005.0 0.0
08/11:30am 29.2 26.8 17.4 49 7.6 NNW 26 37 14 20 1009.1 1005.6 0.0
08/11:00am 27.9 25.4 17.1 51 7.0 NNW 26 37 14 20 1009.6 1006.0 0.0
08/10:41am 26.9 24.1 17.4 56 6.1 NNW 28 46 15 25 1009.8 1006.3 0.0
08/10:30am 26.5 24.0 17.0 56 6.1 NNW 26 43 14 23 1009.8 1006.3 0.0
08/10:06am 26.1 22.9 16.4 55 6.1 NNW 28 54 15 29 1010.0 1006.5 0.0
08/10:00am 26.2 23.7 16.2 54 6.3 NNW 24 33 13 18 1010.1 1006.6 0.0
08/09:30am 25.8 23.9 15.8 54 6.3 NNW 20 30 11 16 1010.7 1007.2 0.0
08/09:00am 24.7 22.8 15.3 56 5.8 N 19 26 10 14 1011.2 1007.7 0.0
08/08:30am 23.3 22.4 14.8 59 5.2 NNW 13 20 7 11 1011.5 1008.0 0.0
08/08:00am 22.1 21.5 14.7 63 4.5 N 11 15 6 8 1011.5 1008.0 0.0
08/07:30am 20.6 19.6 14.5 68 3.7 NNE 13 17 7 9 1011.4 1007.9 0.0
08/07:00am 19.8 18.4 14.4 71 3.2 N 15 20 8 11 1011.5 1008.0 0.0
08/06:30am 17.7 16.6 14.4 81 2.0 N 13 15 7 8 1011.4 1007.9 0.0
08/06:00am 17.7 17.4 14.4 81 2.0 N 9 11 5 6 1011.3 1007.8 0.0
08/05:30am 18.2 17.1 14.3 78 2.3 N 13 15 7 8 1011.1 1007.5 0.0
08/05:00am 18.8 18.1 14.3 75 2.7 N 11 17 6 9 1011.1 1007.5 0.0
08/04:30am 18.8 18.2 14.7 77 2.5 N 11 15 6 8 1011.4 1007.9 0.0
08/04:00am 18.1 17.4 14.4 79 2.2 N 11 13 6 7 1011.4 1007.9 0.0
08/03:30am 18.9 17.5 14.6 76 2.6 NNE 15 17 8 9 1011.6 1008.1 0.0
08/03:00am 18.8 17.4 14.5 76 2.6 NE 15 17 8 9 1011.8 1008.3 0.0
08/02:30am 18.9 17.5 14.4 75 2.7 NE 15 17 8 9 1011.9 1008.4 0.0
08/02:00am 19.1 17.9 14.1 73 3.0 NE 13 17 7 9 1012.3 1008.8 0.0
08/01:30am 19.4 18.3 14.2 72 3.1 NE 13 15 7 8 1012.8 1009.3 0.0
08/01:00am 20.0 18.5 14.1 69 3.5 NE 15 17 8 9 1013.2 1009.7 0.0
08/12:30am 20.5 18.7 14.4 68 3.7 ENE 17 20 9 11 1013.5 1010.0 0.0
08/12:00am 20.9 19.1 14.5 67 3.9 ENE 17 20 9 11 1013.7 1010.2 0.0
 
Date/Time
EDT
Temp
°C
App
Temp
°C
Dew
Point
°C
Rel
Hum
%
Delta-T
°C
Wind Press
QNH
hPa
Press
MSL
hPa
Rain since
9am
mm
Dir  Spd
km/h
Gust
km/h
Spd
kts
Gust
kts
07/11:30pm 21.1 19.3 14.5 66 4.0 NE 17 20 9 11 1014.0 1010.6 0.0
07/11:00pm 21.8 19.7 14.7 64 4.3 NE 19 22 10 12 1014.3 1010.8 0.0
07/10:30pm 22.3 20.1 14.4 61 4.8 ENE 19 22 10 12 1014.3 1010.8 0.0
07/10:00pm 23.1 20.8 14.7 59 5.1 NE 20 26 11 14 1014.3 1010.8 0.0
07/09:30pm 23.2 22.1 14.2 57 5.4 ENE 13 17 7 9 1014.0 1010.6 0.0
07/09:00pm 23.7 22.5 14.1 55 5.8 ENE 13 17 7 9 1014.0 1010.6 0.0
07/08:30pm 24.1 22.7 13.3 51 6.5 ENE 13 17 7 9 1014.0 1010.6 0.0
07/08:00pm 24.7 23.7 12.3 46 7.3 ENE 9 11 5 6 1014.0 1010.6 0.0
07/07:30pm 25.8 24.9 11.2 40 8.5 ESE 7 13 4 7 1013.8 1010.3 0.0
07/07:00pm 27.2 25.9 10.0 34 9.9 S 7 15 4 8 1013.6 1010.1 0.0
07/06:30pm 27.9 26.7 9.7 32 10.4 S 6 11 3 6 1013.5 1010.0 0.0
07/06:00pm 28.1 26.8 9.9 32 10.5 SSW 7 13 4 7 1013.5 1010.0 0.0
07/05:30pm 28.7 26.9 9.4 30 11.0 SSW 9 15 5 8 1013.3 1009.8 0.0
07/05:00pm 29.3 27.5 10.9 32 10.8 SSE 11 17 6 9 1013.3 1009.8 0.0
07/04:30pm 29.5 28.2 11.1 32 10.9 NE 9 15 5 8 1013.9 1010.5 0.0
07/04:00pm 27.3 25.8 10.5 35 9.7 S 9 15 5 8 1014.0 1010.6 0.0
07/03:30pm 28.7 27.3 12.2 36 9.9 SW 11 20 6 11 1014.4 1010.9 0.0
07/03:00pm 28.2 26.5 12.5 37 9.4 W 13 17 7 9 1014.6 1011.1 0.0
07/02:30pm 27.5 27.4 13.4 41 8.6 WNW 6 17 3 9 1014.9 1011.4 0.0
07/02:00pm 25.9 25.5 13.1 45 7.7 NW 7 13 4 7 1015.3 1011.9 0.0
07/01:30pm 25.9 24.9 13.4 46 7.5 WNW 11 17 6 9 1015.6 1012.2 0.0
07/01:00pm 24.7 23.9 13.9 51 6.5 S 11 19 6 10 1016.2 1012.7 0.0
07/12:30pm 23.2 23.0 15.8 63 4.6 SW 11 20 6 11 1016.5 1013.0 0.0
07/12:00pm 21.7 22.1 16.2 71 3.4 SSW 9 13 5 7 1016.5 1013.0 0.0
07/11:30am 21.0 21.1 15.5 71 3.4 SSW 9 13 5 7 1016.7 1013.3 0.0
07/11:00am 20.3 20.4 15.5 74 2.9 SSW 9 13 5 7 1016.6 1013.1 0.0
07/10:30am 19.7 20.0 16.0 79 2.3 S 9 15 5 8 1016.5 1013.0 0.0
07/10:00am 19.1 18.6 16.0 82 1.9 SSW 13 17 7 9 1016.4 1012.9 0.0
07/09:30am 18.4 17.7 15.3 82 1.9 SSW 13 17 7 9 1016.4 1012.9 0.0
07/09:00am 18.2 18.0 15.6 85 1.6 SSW 11 15 6 8 1016.2 1012.7 1.2
07/08:30am 17.6 16.8 15.0 85 1.6 SSW 13 19 7 10 1016.2 1012.7 1.2
07/08:00am 17.3 16.4 14.8 85 1.5 SSW 13 17 7 9 1015.9 1012.4 1.2
07/07:30am 17.0 16.0 14.6 86 1.4 SSW 13 17 7 9 1015.7 1012.3 1.2
07/07:00am 16.7 15.6 14.3 86 1.4 SSW 13 17 7 9 1015.2 1011.7 1.2
07/06:30am 16.4 15.7 14.4 88 1.2 SSW 11 15 6 8 1015.1 1011.6 1.2
07/06:00am 16.2 15.6 14.6 90 0.9 SW 11 15 6 8 1014.8 1011.3 1.2
07/05:30am 16.2 15.7 14.9 92 0.8 SSW 11 17 6 9 1014.4 1010.9 1.2
07/05:00am 16.3 15.9 15.2 93 0.7 SSW 11 15 6 8 1014.4 1010.9 1.2
07/04:30am 16.3 15.9 15.3 94 0.6 S 11 15 6 8 1013.9 1010.5 1.2
07/04:00am 16.4 14.6 15.4 94 0.6 S 19 24 10 13 1014.2 1010.7 1.2
07/03:30am 16.4 14.9 15.3 93 0.7 S 17 20 9 11 1013.5 1010.0 1.2
07/03:00am 16.5 15.1 15.5 94 0.6 S 17 24 9 13 1013.3 1009.8 1.2
07/02:30am 16.9 15.4 15.2 90 1.0 S 17 24 9 13 1014.6 1011.1 1.0
07/02:00am 17.0 16.3 15.5 91 0.9 S 13 17 7 9 1014.6 1011.1 1.0
07/01:30am 17.2 17.3 15.5 90 1.0 S 9 13 5 7 1015.1 1011.6 1.0
07/01:00am 17.3 16.5 16.2 93 0.7 SSW 15 19 8 10 1014.9 1011.4 1.0
07/12:30am 17.2 16.4 16.2 94 0.6 S 15 19 8 10 1014.9 1011.4 1.0
07/12:00am 17.3 16.9 16.3 94 0.6 SSW 13 17 7 9 1015.1 1011.6 1.0
 
Date/Time
EDT
Temp
°C
App
Temp
°C
Dew
Point
°C
Rel
Hum
%
Delta-T
°C
Wind Press
QNH
hPa
Press
MSL
hPa
Rain since
9am
mm
Dir  Spd
km/h
Gust
km/h
Spd
kts
Gust
kts
06/11:30pm 17.6 16.0 16.6 94 0.6 SSW 20 32 11 17 1015.6 1012.2 1.0
06/11:00pm 18.3 17.4 17.7 96 0.4 S 19 22 10 12 1014.8 1011.3 1.0
06/10:30pm 18.5 17.7 17.9 96 0.4 SSW 19 30 10 16 1014.9 1011.4 1.0
06/10:00pm 18.8 18.7 17.8 94 0.6 S 15 17 8 9 1014.4 1010.9 1.0
06/09:30pm 19.1 18.8 17.4 90 1.1 S 15 17 8 9 1015.0 1011.5 0.4
06/09:00pm 19.9 20.0 17.5 86 1.5 SSW 13 20 7 11 1015.2 1011.7 0.0
06/08:30pm 21.5 20.1 17.1 76 2.8 SW 20 30 11 16 1015.4 1012.0 0.0
06/08:00pm 22.7 23.2 16.5 68 3.9 SW 9 13 5 7 1014.6 1011.1 0.0
06/07:30pm 23.4 22.3 16.4 64 4.4 SSW 17 24 9 13 1014.6 1011.1 0.0
06/07:00pm 24.2 23.2 16.5 62 4.8 SW 17 20 9 11 1014.0 1010.6 0.0
06/06:30pm 24.6 23.0 16.6 61 5.0 SW 20 26 11 14 1013.5 1010.0 0.0
06/06:00pm 25.9 24.4 16.2 55 6.1 SW 19 26 10 14 1013.1 1009.6 0.0
06/05:30pm 26.6 25.0 15.9 51 6.7 SSW 19 26 10 14 1012.6 1009.1 0.0
06/05:00pm 28.3 26.2 15.2 44 8.2 SW 20 32 11 17 1012.3 1008.8 0.0
06/04:30pm 29.1 26.6 15.2 42 8.7 WSW 22 30 12 16 1012.7 1009.2 0.0
06/04:00pm 30.0 25.1 13.7 37 10.0 W 32 41 17 22 1012.7 1009.2 0.0
06/03:30pm 30.1 27.0 14.6 39 9.7 WNW 24 43 13 23 1012.9 1009.4 0.0
06/03:00pm 30.1 26.6 14.6 39 9.7 W 26 33 14 18 1013.3 1009.8 0.0
06/02:30pm 30.4 28.5 15.7 41 9.3 W 20 32 11 17 1013.7 1010.2 0.0
06/02:00pm 28.6 26.5 14.8 43 8.6 W 19 24 10 13 1014.3 1010.8 0.0
06/01:30pm 28.2 25.9 14.1 42 8.7 WSW 19 24 10 13 1014.8 1011.3 0.0
06/01:00pm 28.6 26.3 14.1 41 8.9 W 19 24 10 13 1015.2 1011.7 0.0
06/12:30pm 28.3 26.5 14.5 43 8.5 WNW 17 24 9 13 1015.5 1012.1 0.0
06/12:00pm 28.7 27.6 15.2 43 8.5 NNW 15 22 8 12 1015.4 1012.0 0.0
06/11:30am 28.3 26.3 14.9 44 8.3 NNW 19 24 10 13 1015.3 1011.9 0.0
06/11:00am 28.2 27.3 14.8 44 8.3 NNW 13 19 7 10 1015.0 1011.5 0.0
06/10:30am 28.6 27.9 15.5 45 8.2 NNW 13 19 7 10 1015.1 1011.6 0.0
06/10:00am 27.7 26.5 15.0 45 7.9 NNW 15 19 8 10 1015.1 1011.6 0.0
06/09:30am 27.9 27.5 15.2 46 7.9 NNW 11 15 6 8 1014.8 1011.3 0.0
06/09:00am 27.8 27.6 14.8 45 8.1 NNW 9 15 5 8 1014.7 1011.2 0.0
06/08:30am 28.0 27.8 14.6 44 8.3 NNW 9 13 5 7 1014.5 1011.0 0.0
06/08:00am 28.5 26.9 12.8 38 9.5 W 13 15 7 8 1014.3 1010.8 0.0
06/07:30am 26.8 26.5 14.5 46 7.6 W 9 11 5 6 1014.0 1010.6 0.0
06/07:00am 25.9 25.4 15.0 51 6.7 NW 11 13 6 7 1013.7 1010.2 0.0

Other Formats:

Comma delimited format used in spreadsheet applications
http://www.bom.gov.au/fwo/IDN60801/IDN60801.95728.axf

JavaScript Object Notation format (JSON) in row-major order
http://www.bom.gov.au/fwo/IDN60801/IDN60801.95728.json